sensor_id;sensor_type;location;lat;lon;timestamp;temperature;humidity
19966;DHT22;10144;50.874;4.762;2023-07-29T00:02:18;20.60;99.90
19966;DHT22;10144;50.874;4.762;2023-07-29T00:04:44;20.60;99.90
19966;DHT22;10144;50.874;4.762;2023-07-29T00:07:11;20.60;99.90
19966;DHT22;10144;50.874;4.762;2023-07-29T00:09:40;20.60;99.90
19966;DHT22;10144;50.874;4.762;2023-07-29T00:12:11;20.60;99.90
19966;DHT22;10144;50.874;4.762;2023-07-29T00:14:38;20.60;99.90
19966;DHT22;10144;50.874;4.762;2023-07-29T00:17:04;20.70;99.90
19966;DHT22;10144;50.874;4.762;2023-07-29T00:19:31;20.70;99.90
19966;DHT22;10144;50.874;4.762;2023-07-29T00:21:57;20.50;99.90
19966;DHT22;10144;50.874;4.762;2023-07-29T00:24:23;20.50;99.90
19966;DHT22;10144;50.874;4.762;2023-07-29T00:26:54;20.50;99.90
19966;DHT22;10144;50.874;4.762;2023-07-29T00:29:21;20.40;99.90
19966;DHT22;10144;50.874;4.762;2023-07-29T00:31:53;20.50;99.90
19966;DHT22;10144;50.874;4.762;2023-07-29T00:34:18;20.50;99.90
19966;DHT22;10144;50.874;4.762;2023-07-29T00:36:45;20.50;99.90
19966;DHT22;10144;50.874;4.762;2023-07-29T00:39:11;20.50;99.90
19966;DHT22;10144;50.874;4.762;2023-07-29T00:41:37;20.60;99.90
19966;DHT22;10144;50.874;4.762;2023-07-29T00:44:03;20.50;99.90
19966;DHT22;10144;50.874;4.762;2023-07-29T00:46:29;20.40;99.90
19966;DHT22;10144;50.874;4.762;2023-07-29T00:48:55;20.40;99.90
19966;DHT22;10144;50.874;4.762;2023-07-29T00:51:21;20.40;99.90
19966;DHT22;10144;50.874;4.762;2023-07-29T00:53:47;20.30;99.90
19966;DHT22;10144;50.874;4.762;2023-07-29T00:56:13;20.20;99.90
19966;DHT22;10144;50.874;4.762;2023-07-29T00:58:45;20.10;99.90
19966;DHT22;10144;50.874;4.762;2023-07-29T01:01:13;20.00;99.90
19966;DHT22;10144;50.874;4.762;2023-07-29T01:03:41;19.90;99.90
19966;DHT22;10144;50.874;4.762;2023-07-29T01:09:02;19.90;99.90
19966;DHT22;10144;50.874;4.762;2023-07-29T01:16:53;19.70;99.90
19966;DHT22;10144;50.874;4.762;2023-07-29T01:22:21;19.40;99.90
19966;DHT22;10144;50.874;4.762;2023-07-29T01:24:50;19.40;99.90
19966;DHT22;10144;50.874;4.762;2023-07-29T01:27:18;19.40;99.90
19966;DHT22;10144;50.874;4.762;2023-07-29T01:29:47;19.30;99.90
19966;DHT22;10144;50.874;4.762;2023-07-29T01:32:28;19.30;99.90
19966;DHT22;10144;50.874;4.762;2023-07-29T01:37:26;19.40;99.90
19966;DHT22;10144;50.874;4.762;2023-07-29T01:40:00;19.40;99.90
19966;DHT22;10144;50.874;4.762;2023-07-29T01:42:33;19.40;99.90
19966;DHT22;10144;50.874;4.762;2023-07-29T01:45:00;19.30;99.90
19966;DHT22;10144;50.874;4.762;2023-07-29T01:47:31;19.30;99.90
19966;DHT22;10144;50.874;4.762;2023-07-29T01:50:03;19.40;99.90
19966;DHT22;10144;50.874;4.762;2023-07-29T01:52:30;19.20;99.90
19966;DHT22;10144;50.874;4.762;2023-07-29T01:55:02;19.10;99.90
19966;DHT22;10144;50.874;4.762;2023-07-29T01:57:28;19.10;99.90
19966;DHT22;10144;50.874;4.762;2023-07-29T01:59:56;19.20;99.90
19966;DHT22;10144;50.874;4.762;2023-07-29T02:02:23;19.20;99.90
19966;DHT22;10144;50.874;4.762;2023-07-29T02:04:49;19.30;99.90
19966;DHT22;10144;50.874;4.762;2023-07-29T02:07:34;19.30;99.90
19966;DHT22;10144;50.874;4.762;2023-07-29T02:10:06;19.20;99.90
19966;DHT22;10144;50.874;4.762;2023-07-29T02:12:31;19.00;99.90
19966;DHT22;10144;50.874;4.762;2023-07-29T02:14:57;18.90;99.90
19966;DHT22;10144;50.874;4.762;2023-07-29T02:17:23;18.90;99.90
19966;DHT22;10144;50.874;4.762;2023-07-29T02:19:49;18.90;99.90
19966;DHT22;10144;50.874;4.762;2023-07-29T02:22:16;18.90;99.90
19966;DHT22;10144;50.874;4.762;2023-07-29T02:24:44;18.90;99.90
19966;DHT22;10144;50.874;4.762;2023-07-29T02:27:13;19.00;99.90
19966;DHT22;10144;50.874;4.762;2023-07-29T02:29:39;19.00;99.90
19966;DHT22;10144;50.874;4.762;2023-07-29T02:32:15;19.00;99.90
19966;DHT22;10144;50.874;4.762;2023-07-29T02:34:42;19.00;99.90
19966;DHT22;10144;50.874;4.762;2023-07-29T02:37:11;19.00;99.90
19966;DHT22;10144;50.874;4.762;2023-07-29T02:39:39;18.90;99.90
19966;DHT22;10144;50.874;4.762;2023-07-29T02:42:07;18.80;99.90
19966;DHT22;10144;50.874;4.762;2023-07-29T02:44:33;18.70;99.90
19966;DHT22;10144;50.874;4.762;2023-07-29T02:47:01;18.60;99.90
19966;DHT22;10144;50.874;4.762;2023-07-29T02:49:27;18.50;99.90
19966;DHT22;10144;50.874;4.762;2023-07-29T02:51:55;18.50;99.90
19966;DHT22;10144;50.874;4.762;2023-07-29T02:54:20;18.50;99.90
19966;DHT22;10144;50.874;4.762;2023-07-29T02:56:50;18.60;99.90
19966;DHT22;10144;50.874;4.762;2023-07-29T02:59:16;18.60;99.90
19966;DHT22;10144;50.874;4.762;2023-07-29T03:01:43;18.50;99.90
19966;DHT22;10144;50.874;4.762;2023-07-29T03:04:11;18.50;99.90
19966;DHT22;10144;50.874;4.762;2023-07-29T03:06:38;18.50;99.90
19966;DHT22;10144;50.874;4.762;2023-07-29T03:09:07;18.40;99.90
19966;DHT22;10144;50.874;4.762;2023-07-29T03:11:34;18.30;99.90
19966;DHT22;10144;50.874;4.762;2023-07-29T03:14:00;18.30;99.90
19966;DHT22;10144;50.874;4.762;2023-07-29T03:16:29;18.30;99.90
19966;DHT22;10144;50.874;4.762;2023-07-29T03:18:58;18.40;99.90
19966;DHT22;10144;50.874;4.762;2023-07-29T03:21:28;18.40;99.90
19966;DHT22;10144;50.874;4.762;2023-07-29T03:23:55;18.40;99.90
19966;DHT22;10144;50.874;4.762;2023-07-29T03:26:27;18.50;99.90
19966;DHT22;10144;50.874;4.762;2023-07-29T03:28:54;18.60;99.90
19966;DHT22;10144;50.874;4.762;2023-07-29T03:31:23;18.60;99.90
19966;DHT22;10144;50.874;4.762;2023-07-29T03:33:52;18.50;99.90
19966;DHT22;10144;50.874;4.762;2023-07-29T03:36:21;18.60;99.90
19966;DHT22;10144;50.874;4.762;2023-07-29T03:38:47;18.60;99.90
19966;DHT22;10144;50.874;4.762;2023-07-29T03:41:13;18.50;99.90
19966;DHT22;10144;50.874;4.762;2023-07-29T03:43:40;18.50;99.90
19966;DHT22;10144;50.874;4.762;2023-07-29T03:46:07;18.40;99.90
19966;DHT22;10144;50.874;4.762;2023-07-29T03:48:45;18.40;99.90
19966;DHT22;10144;50.874;4.762;2023-07-29T03:51:14;18.40;99.90
19966;DHT22;10144;50.874;4.762;2023-07-29T03:53:41;18.40;99.90
19966;DHT22;10144;50.874;4.762;2023-07-29T03:56:10;18.20;99.90
19966;DHT22;10144;50.874;4.762;2023-07-29T03:58:37;18.30;99.90
19966;DHT22;10144;50.874;4.762;2023-07-29T04:01:02;18.30;99.90
19966;DHT22;10144;50.874;4.762;2023-07-29T04:03:30;18.10;99.90
19966;DHT22;10144;50.874;4.762;2023-07-29T04:05:55;18.10;99.90
19966;DHT22;10144;50.874;4.762;2023-07-29T04:08:21;18.20;99.90
19966;DHT22;10144;50.874;4.762;2023-07-29T04:10:47;18.10;99.90
19966;DHT22;10144;50.874;4.762;2023-07-29T04:13:13;18.00;99.90
19966;DHT22;10144;50.874;4.762;2023-07-29T04:15:40;18.00;99.90
19966;DHT22;10144;50.874;4.762;2023-07-29T04:18:09;17.90;99.90
19966;DHT22;10144;50.874;4.762;2023-07-29T04:20:38;17.90;99.90
19966;DHT22;10144;50.874;4.762;2023-07-29T04:23:07;17.80;99.90
19966;DHT22;10144;50.874;4.762;2023-07-29T04:25:35;17.90;99.90
19966;DHT22;10144;50.874;4.762;2023-07-29T04:28:04;17.90;99.90
19966;DHT22;10144;50.874;4.762;2023-07-29T04:30:31;17.90;99.90
19966;DHT22;10144;50.874;4.762;2023-07-29T04:33:03;17.80;99.90
19966;DHT22;10144;50.874;4.762;2023-07-29T04:35:29;17.80;99.90
19966;DHT22;10144;50.874;4.762;2023-07-29T04:37:57;17.70;99.90
19966;DHT22;10144;50.874;4.762;2023-07-29T04:40:23;17.60;99.90
19966;DHT22;10144;50.874;4.762;2023-07-29T04:42:55;17.70;99.90
19966;DHT22;10144;50.874;4.762;2023-07-29T04:45:20;17.80;99.90
19966;DHT22;10144;50.874;4.762;2023-07-29T04:47:52;17.80;99.90
19966;DHT22;10144;50.874;4.762;2023-07-29T04:50:17;17.80;99.90
19966;DHT22;10144;50.874;4.762;2023-07-29T04:52:43;17.90;99.90
19966;DHT22;10144;50.874;4.762;2023-07-29T04:55:08;18.00;99.90
19966;DHT22;10144;50.874;4.762;2023-07-29T04:57:34;18.00;99.90
19966;DHT22;10144;50.874;4.762;2023-07-29T05:00:00;17.90;99.90
19966;DHT22;10144;50.874;4.762;2023-07-29T05:02:25;17.90;99.90
19966;DHT22;10144;50.874;4.762;2023-07-29T05:04:51;18.00;99.90
19966;DHT22;10144;50.874;4.762;2023-07-29T05:07:17;18.00;99.90
19966;DHT22;10144;50.874;4.762;2023-07-29T05:09:43;18.10;99.90
19966;DHT22;10144;50.874;4.762;2023-07-29T05:12:08;18.10;99.90
19966;DHT22;10144;50.874;4.762;2023-07-29T05:14:34;18.20;99.90
19966;DHT22;10144;50.874;4.762;2023-07-29T05:17:00;18.20;99.90
19966;DHT22;10144;50.874;4.762;2023-07-29T05:19:26;18.30;99.90
19966;DHT22;10144;50.874;4.762;2023-07-29T05:21:52;18.30;99.90
19966;DHT22;10144;50.874;4.762;2023-07-29T05:24:18;18.40;99.90
19966;DHT22;10144;50.874;4.762;2023-07-29T05:26:44;18.40;99.90
19966;DHT22;10144;50.874;4.762;2023-07-29T05:29:09;18.60;99.90
19966;DHT22;10144;50.874;4.762;2023-07-29T05:31:41;18.70;99.90
19966;DHT22;10144;50.874;4.762;2023-07-29T05:34:10;18.90;99.90
19966;DHT22;10144;50.874;4.762;2023-07-29T05:36:37;19.00;99.90
19966;DHT22;10144;50.874;4.762;2023-07-29T05:39:05;19.20;99.90
19966;DHT22;10144;50.874;4.762;2023-07-29T05:41:31;19.30;99.90
19966;DHT22;10144;50.874;4.762;2023-07-29T05:44:03;19.50;99.90
19966;DHT22;10144;50.874;4.762;2023-07-29T05:46:29;19.60;99.90
19966;DHT22;10144;50.874;4.762;2023-07-29T05:49:00;19.70;99.90
19966;DHT22;10144;50.874;4.762;2023-07-29T05:51:25;20.10;99.90
19966;DHT22;10144;50.874;4.762;2023-07-29T05:53:51;20.20;99.90
19966;DHT22;10144;50.874;4.762;2023-07-29T05:56:17;20.10;99.90
19966;DHT22;10144;50.874;4.762;2023-07-29T05:58:42;20.00;99.90
19966;DHT22;10144;50.874;4.762;2023-07-29T06:01:08;20.10;99.90
19966;DHT22;10144;50.874;4.762;2023-07-29T06:03:33;20.70;99.90
19966;DHT22;10144;50.874;4.762;2023-07-29T06:05:59;20.90;99.90
19966;DHT22;10144;50.874;4.762;2023-07-29T06:08:24;20.70;99.90
19966;DHT22;10144;50.874;4.762;2023-07-29T06:10:54;20.70;99.90
19966;DHT22;10144;50.874;4.762;2023-07-29T06:13:20;20.70;99.90
19966;DHT22;10144;50.874;4.762;2023-07-29T06:15:46;20.70;99.90
19966;DHT22;10144;50.874;4.762;2023-07-29T06:18:11;20.70;99.90
19966;DHT22;10144;50.874;4.762;2023-07-29T06:20:37;20.70;99.90
19966;DHT22;10144;50.874;4.762;2023-07-29T06:23:03;20.60;99.90
19966;DHT22;10144;50.874;4.762;2023-07-29T06:25:29;20.50;99.90
19966;DHT22;10144;50.874;4.762;2023-07-29T06:27:54;20.40;99.90
19966;DHT22;10144;50.874;4.762;2023-07-29T06:30:20;20.40;99.90
19966;DHT22;10144;50.874;4.762;2023-07-29T06:32:45;20.40;99.90
19966;DHT22;10144;50.874;4.762;2023-07-29T06:35:11;20.40;99.90
19966;DHT22;10144;50.874;4.762;2023-07-29T06:37:37;20.80;99.90
19966;DHT22;10144;50.874;4.762;2023-07-29T06:40:02;21.50;99.90
19966;DHT22;10144;50.874;4.762;2023-07-29T06:42:28;22.20;99.90
19966;DHT22;10144;50.874;4.762;2023-07-29T06:44:54;22.60;99.90
19966;DHT22;10144;50.874;4.762;2023-07-29T06:47:19;22.70;99.90
19966;DHT22;10144;50.874;4.762;2023-07-29T06:49:46;22.90;99.90
19966;DHT22;10144;50.874;4.762;2023-07-29T06:52:12;23.60;99.90
19966;DHT22;10144;50.874;4.762;2023-07-29T06:54:37;24.20;99.90
19966;DHT22;10144;50.874;4.762;2023-07-29T06:57:03;24.70;99.90
19966;DHT22;10144;50.874;4.762;2023-07-29T06:59:29;25.00;99.90
19966;DHT22;10144;50.874;4.762;2023-07-29T07:01:54;25.10;99.90
19966;DHT22;10144;50.874;4.762;2023-07-29T07:04:20;25.00;99.90
19966;DHT22;10144;50.874;4.762;2023-07-29T07:06:46;24.90;99.90
19966;DHT22;10144;50.874;4.762;2023-07-29T07:09:11;24.40;99.90
19966;DHT22;10144;50.874;4.762;2023-07-29T07:11:37;23.80;99.90
19966;DHT22;10144;50.874;4.762;2023-07-29T07:14:02;23.40;99.90
19966;DHT22;10144;50.874;4.762;2023-07-29T07:16:28;23.10;99.90
19966;DHT22;10144;50.874;4.762;2023-07-29T07:18:56;23.10;99.90
19966;DHT22;10144;50.874;4.762;2023-07-29T07:21:21;23.10;99.90
19966;DHT22;10144;50.874;4.762;2023-07-29T07:23:49;22.80;99.90
19966;DHT22;10144;50.874;4.762;2023-07-29T07:26:15;22.40;99.90
19966;DHT22;10144;50.874;4.762;2023-07-29T07:28:40;22.50;99.90
19966;DHT22;10144;50.874;4.762;2023-07-29T07:31:06;22.30;99.90
19966;DHT22;10144;50.874;4.762;2023-07-29T07:33:32;22.40;99.90
19966;DHT22;10144;50.874;4.762;2023-07-29T07:35:57;22.30;99.90
19966;DHT22;10144;50.874;4.762;2023-07-29T07:38:24;22.20;99.90
19966;DHT22;10144;50.874;4.762;2023-07-29T07:40:56;22.20;99.90
19966;DHT22;10144;50.874;4.762;2023-07-29T07:43:23;22.10;99.90
19966;DHT22;10144;50.874;4.762;2023-07-29T07:45:48;22.30;99.90
19966;DHT22;10144;50.874;4.762;2023-07-29T07:48:14;22.40;99.90
19966;DHT22;10144;50.874;4.762;2023-07-29T07:50:42;22.40;99.90
19966;DHT22;10144;50.874;4.762;2023-07-29T07:53:07;22.40;99.90
19966;DHT22;10144;50.874;4.762;2023-07-29T07:55:33;22.30;99.90
19966;DHT22;10144;50.874;4.762;2023-07-29T07:57:59;22.10;99.90
19966;DHT22;10144;50.874;4.762;2023-07-29T08:00:24;21.90;99.90
19966;DHT22;10144;50.874;4.762;2023-07-29T08:02:50;21.90;99.90
19966;DHT22;10144;50.874;4.762;2023-07-29T08:05:15;21.90;99.90
19966;DHT22;10144;50.874;4.762;2023-07-29T08:07:41;21.80;99.90
19966;DHT22;10144;50.874;4.762;2023-07-29T08:10:07;21.90;99.90
19966;DHT22;10144;50.874;4.762;2023-07-29T08:12:32;21.90;99.90
19966;DHT22;10144;50.874;4.762;2023-07-29T08:14:58;21.90;99.90
19966;DHT22;10144;50.874;4.762;2023-07-29T08:17:24;21.90;99.90
19966;DHT22;10144;50.874;4.762;2023-07-29T08:19:49;22.10;99.90
19966;DHT22;10144;50.874;4.762;2023-07-29T08:22:15;22.40;99.90
19966;DHT22;10144;50.874;4.762;2023-07-29T08:24:42;22.60;99.90
19966;DHT22;10144;50.874;4.762;2023-07-29T08:27:08;22.90;99.90
19966;DHT22;10144;50.874;4.762;2023-07-29T08:29:33;23.20;99.90
19966;DHT22;10144;50.874;4.762;2023-07-29T08:31:59;23.30;99.90
19966;DHT22;10144;50.874;4.762;2023-07-29T08:34:25;23.70;99.90
19966;DHT22;10144;50.874;4.762;2023-07-29T08:36:50;24.10;99.90
19966;DHT22;10144;50.874;4.762;2023-07-29T08:39:16;24.00;99.90
19966;DHT22;10144;50.874;4.762;2023-07-29T08:41:54;24.00;99.90
19966;DHT22;10144;50.874;4.762;2023-07-29T08:44:26;24.00;99.90
19966;DHT22;10144;50.874;4.762;2023-07-29T08:46:51;23.80;99.90
19966;DHT22;10144;50.874;4.762;2023-07-29T08:49:19;24.00;99.90
19966;DHT22;10144;50.874;4.762;2023-07-29T08:51:46;24.30;99.90
19966;DHT22;10144;50.874;4.762;2023-07-29T08:54:13;24.40;99.90
19966;DHT22;10144;50.874;4.762;2023-07-29T08:56:42;24.50;99.90
19966;DHT22;10144;50.874;4.762;2023-07-29T08:59:10;24.90;99.90
19966;DHT22;10144;50.874;4.762;2023-07-29T09:01:38;25.00;99.90
19966;DHT22;10144;50.874;4.762;2023-07-29T09:04:04;25.00;99.90
19966;DHT22;10144;50.874;4.762;2023-07-29T09:06:31;25.10;99.90
19966;DHT22;10144;50.874;4.762;2023-07-29T09:08:58;25.60;99.90
19966;DHT22;10144;50.874;4.762;2023-07-29T09:11:24;26.10;99.90
19966;DHT22;10144;50.874;4.762;2023-07-29T09:13:50;26.40;99.90
19966;DHT22;10144;50.874;4.762;2023-07-29T09:16:16;26.20;99.90
19966;DHT22;10144;50.874;4.762;2023-07-29T09:18:42;26.70;99.90
19966;DHT22;10144;50.874;4.762;2023-07-29T09:21:08;27.60;99.90
19966;DHT22;10144;50.874;4.762;2023-07-29T09:23:42;28.40;99.90
19966;DHT22;10144;50.874;4.762;2023-07-29T09:26:08;29.20;99.90
19966;DHT22;10144;50.874;4.762;2023-07-29T09:28:35;29.20;99.90
19966;DHT22;10144;50.874;4.762;2023-07-29T09:31:01;29.40;99.90
19966;DHT22;10144;50.874;4.762;2023-07-29T09:33:27;29.70;99.90
19966;DHT22;10144;50.874;4.762;2023-07-29T09:35:53;29.80;99.90
19966;DHT22;10144;50.874;4.762;2023-07-29T09:38:26;29.90;99.90
19966;DHT22;10144;50.874;4.762;2023-07-29T09:40:57;29.10;99.90
19966;DHT22;10144;50.874;4.762;2023-07-29T09:43:31;28.40;99.90
19966;DHT22;10144;50.874;4.762;2023-07-29T09:46:04;27.80;99.90
19966;DHT22;10144;50.874;4.762;2023-07-29T09:48:34;27.10;99.90
19966;DHT22;10144;50.874;4.762;2023-07-29T09:51:10;26.50;99.90
19966;DHT22;10144;50.874;4.762;2023-07-29T09:53:43;26.20;99.90
19966;DHT22;10144;50.874;4.762;2023-07-29T09:56:08;26.40;99.90
19966;DHT22;10144;50.874;4.762;2023-07-29T09:58:34;26.50;99.90
19966;DHT22;10144;50.874;4.762;2023-07-29T10:01:01;26.10;99.90
19966;DHT22;10144;50.874;4.762;2023-07-29T10:03:27;25.90;99.90
19966;DHT22;10144;50.874;4.762;2023-07-29T10:05:54;25.70;99.90
19966;DHT22;10144;50.874;4.762;2023-07-29T10:08:22;25.70;99.90
19966;DHT22;10144;50.874;4.762;2023-07-29T10:10:50;26.00;99.90
19966;DHT22;10144;50.874;4.762;2023-07-29T10:13:17;26.20;99.90
19966;DHT22;10144;50.874;4.762;2023-07-29T10:15:44;26.20;99.90
19966;DHT22;10144;50.874;4.762;2023-07-29T10:18:10;26.00;99.90
19966;DHT22;10144;50.874;4.762;2023-07-29T10:20:37;26.30;99.90
19966;DHT22;10144;50.874;4.762;2023-07-29T10:23:07;26.80;99.90
19966;DHT22;10144;50.874;4.762;2023-07-29T10:25:47;26.80;99.90
19966;DHT22;10144;50.874;4.762;2023-07-29T10:28:12;26.30;99.90
19966;DHT22;10144;50.874;4.762;2023-07-29T10:30:41;26.00;99.90
19966;DHT22;10144;50.874;4.762;2023-07-29T10:33:07;25.50;99.90
19966;DHT22;10144;50.874;4.762;2023-07-29T10:35:33;25.30;99.90
19966;DHT22;10144;50.874;4.762;2023-07-29T10:38:01;25.00;99.90
19966;DHT22;10144;50.874;4.762;2023-07-29T10:40:46;24.70;99.90
19966;DHT22;10144;50.874;4.762;2023-07-29T10:43:15;24.30;99.90
19966;DHT22;10144;50.874;4.762;2023-07-29T10:45:43;23.90;99.90
19966;DHT22;10144;50.874;4.762;2023-07-29T10:48:13;23.60;99.90
19966;DHT22;10144;50.874;4.762;2023-07-29T10:50:39;23.00;99.90
19966;DHT22;10144;50.874;4.762;2023-07-29T10:53:05;22.60;99.90
19966;DHT22;10144;50.874;4.762;2023-07-29T10:55:35;22.30;99.90
19966;DHT22;10144;50.874;4.762;2023-07-29T10:58:12;22.00;99.90
19966;DHT22;10144;50.874;4.762;2023-07-29T11:00:38;22.10;99.90
19966;DHT22;10144;50.874;4.762;2023-07-29T11:03:07;22.40;99.90
19966;DHT22;10144;50.874;4.762;2023-07-29T11:05:49;22.70;99.90
19966;DHT22;10144;50.874;4.762;2023-07-29T11:08:37;23.10;99.90
19966;DHT22;10144;50.874;4.762;2023-07-29T11:11:04;23.10;99.90
19966;DHT22;10144;50.874;4.762;2023-07-29T11:13:32;23.20;99.90
19966;DHT22;10144;50.874;4.762;2023-07-29T11:15:58;23.30;99.90
19966;DHT22;10144;50.874;4.762;2023-07-29T11:18:36;23.10;99.90
19966;DHT22;10144;50.874;4.762;2023-07-29T11:21:03;23.00;99.90
19966;DHT22;10144;50.874;4.762;2023-07-29T11:23:34;23.20;99.90
19966;DHT22;10144;50.874;4.762;2023-07-29T11:26:01;23.20;99.90
19966;DHT22;10144;50.874;4.762;2023-07-29T11:28:28;23.20;99.90
19966;DHT22;10144;50.874;4.762;2023-07-29T11:30:57;23.40;99.90
19966;DHT22;10144;50.874;4.762;2023-07-29T11:33:25;23.90;99.90
19966;DHT22;10144;50.874;4.762;2023-07-29T11:35:51;24.20;99.90
19966;DHT22;10144;50.874;4.762;2023-07-29T11:38:19;24.30;99.90
19966;DHT22;10144;50.874;4.762;2023-07-29T11:41:00;24.30;99.90
19966;DHT22;10144;50.874;4.762;2023-07-29T11:43:26;23.90;99.90
19966;DHT22;10144;50.874;4.762;2023-07-29T11:45:52;24.00;99.90
19966;DHT22;10144;50.874;4.762;2023-07-29T11:48:18;24.10;99.90
19966;DHT22;10144;50.874;4.762;2023-07-29T11:50:45;23.90;99.90
19966;DHT22;10144;50.874;4.762;2023-07-29T11:53:11;23.80;99.90
19966;DHT22;10144;50.874;4.762;2023-07-29T11:55:37;23.80;99.90
19966;DHT22;10144;50.874;4.762;2023-07-29T11:58:02;24.20;99.90
19966;DHT22;10144;50.874;4.762;2023-07-29T12:00:28;24.70;99.90
19966;DHT22;10144;50.874;4.762;2023-07-29T12:02:54;24.80;99.90
19966;DHT22;10144;50.874;4.762;2023-07-29T12:05:22;25.00;99.90
19966;DHT22;10144;50.874;4.762;2023-07-29T12:07:49;25.50;99.90
19966;DHT22;10144;50.874;4.762;2023-07-29T12:10:14;25.60;99.90
19966;DHT22;10144;50.874;4.762;2023-07-29T12:12:47;25.40;99.90
19966;DHT22;10144;50.874;4.762;2023-07-29T12:15:13;25.20;99.90
19966;DHT22;10144;50.874;4.762;2023-07-29T12:17:47;25.60;99.90
19966;DHT22;10144;50.874;4.762;2023-07-29T12:20:13;26.10;99.90
19966;DHT22;10144;50.874;4.762;2023-07-29T12:22:39;26.40;99.90
19966;DHT22;10144;50.874;4.762;2023-07-29T12:25:05;26.80;99.90
19966;DHT22;10144;50.874;4.762;2023-07-29T12:27:31;26.90;99.90
19966;DHT22;10144;50.874;4.762;2023-07-29T12:29:57;27.00;99.90
19966;DHT22;10144;50.874;4.762;2023-07-29T12:32:25;26.90;99.90
19966;DHT22;10144;50.874;4.762;2023-07-29T12:34:53;26.20;99.90
19966;DHT22;10144;50.874;4.762;2023-07-29T12:37:19;25.90;99.90
19966;DHT22;10144;50.874;4.762;2023-07-29T12:39:44;25.70;99.90
19966;DHT22;10144;50.874;4.762;2023-07-29T12:42:10;25.60;99.90
19966;DHT22;10144;50.874;4.762;2023-07-29T12:44:37;25.50;99.90
19966;DHT22;10144;50.874;4.762;2023-07-29T12:47:05;25.20;99.90
19966;DHT22;10144;50.874;4.762;2023-07-29T12:49:31;24.90;99.90
19966;DHT22;10144;50.874;4.762;2023-07-29T12:51:58;24.80;99.90
19966;DHT22;10144;50.874;4.762;2023-07-29T12:54:23;24.50;99.90
19966;DHT22;10144;50.874;4.762;2023-07-29T12:56:49;24.00;99.90
19966;DHT22;10144;50.874;4.762;2023-07-29T12:59:15;23.60;99.90
19966;DHT22;10144;50.874;4.762;2023-07-29T13:01:41;23.60;99.90
19966;DHT22;10144;50.874;4.762;2023-07-29T13:04:06;23.40;99.90
19966;DHT22;10144;50.874;4.762;2023-07-29T13:06:32;23.60;99.90
19966;DHT22;10144;50.874;4.762;2023-07-29T13:08:58;23.90;99.90
19966;DHT22;10144;50.874;4.762;2023-07-29T13:11:24;24.20;99.90
19966;DHT22;10144;50.874;4.762;2023-07-29T13:13:49;24.60;99.90
19966;DHT22;10144;50.874;4.762;2023-07-29T13:16:15;24.90;99.90
19966;DHT22;10144;50.874;4.762;2023-07-29T13:18:43;25.10;99.90
19966;DHT22;10144;50.874;4.762;2023-07-29T13:21:08;25.30;99.90
19966;DHT22;10144;50.874;4.762;2023-07-29T13:23:34;25.40;99.90
19966;DHT22;10144;50.874;4.762;2023-07-29T13:26:00;25.60;99.90
19966;DHT22;10144;50.874;4.762;2023-07-29T13:28:26;25.70;99.90
19966;DHT22;10144;50.874;4.762;2023-07-29T13:30:51;26.00;99.90
19966;DHT22;10144;50.874;4.762;2023-07-29T13:33:17;26.20;99.90
19966;DHT22;10144;50.874;4.762;2023-07-29T13:35:43;26.30;99.90
19966;DHT22;10144;50.874;4.762;2023-07-29T13:38:08;26.20;99.90
19966;DHT22;10144;50.874;4.762;2023-07-29T13:40:34;26.20;99.90
19966;DHT22;10144;50.874;4.762;2023-07-29T13:43:00;26.20;99.90
19966;DHT22;10144;50.874;4.762;2023-07-29T13:45:25;26.20;99.90
19966;DHT22;10144;50.874;4.762;2023-07-29T13:47:51;26.30;99.90
19966;DHT22;10144;50.874;4.762;2023-07-29T13:50:17;26.20;99.90
19966;DHT22;10144;50.874;4.762;2023-07-29T13:52:43;26.30;99.90
19966;DHT22;10144;50.874;4.762;2023-07-29T13:55:10;26.20;99.90
19966;DHT22;10144;50.874;4.762;2023-07-29T13:57:37;26.10;99.90
19966;DHT22;10144;50.874;4.762;2023-07-29T14:00:04;25.90;99.90
19966;DHT22;10144;50.874;4.762;2023-07-29T14:02:30;25.90;99.90
19966;DHT22;10144;50.874;4.762;2023-07-29T14:04:56;25.90;99.90
19966;DHT22;10144;50.874;4.762;2023-07-29T14:07:22;25.70;99.90
19966;DHT22;10144;50.874;4.762;2023-07-29T14:09:48;25.60;99.90
19966;DHT22;10144;50.874;4.762;2023-07-29T14:12:13;25.90;99.90
19966;DHT22;10144;50.874;4.762;2023-07-29T14:14:40;25.90;99.90
19966;DHT22;10144;50.874;4.762;2023-07-29T14:17:06;25.80;99.90
19966;DHT22;10144;50.874;4.762;2023-07-29T14:19:32;25.70;99.90
19966;DHT22;10144;50.874;4.762;2023-07-29T14:21:58;25.70;99.90
19966;DHT22;10144;50.874;4.762;2023-07-29T14:24:24;25.70;99.90
19966;DHT22;10144;50.874;4.762;2023-07-29T14:26:49;25.50;99.90
19966;DHT22;10144;50.874;4.762;2023-07-29T14:29:15;25.40;99.90
19966;DHT22;10144;50.874;4.762;2023-07-29T14:31:41;25.40;99.90
19966;DHT22;10144;50.874;4.762;2023-07-29T14:34:06;25.30;99.90
19966;DHT22;10144;50.874;4.762;2023-07-29T14:36:32;25.60;99.90
19966;DHT22;10144;50.874;4.762;2023-07-29T14:38:57;25.60;99.90
19966;DHT22;10144;50.874;4.762;2023-07-29T14:41:23;25.40;99.90
19966;DHT22;10144;50.874;4.762;2023-07-29T14:43:49;25.40;99.90
19966;DHT22;10144;50.874;4.762;2023-07-29T14:46:14;25.40;99.90
19966;DHT22;10144;50.874;4.762;2023-07-29T14:48:40;25.40;99.90
19966;DHT22;10144;50.874;4.762;2023-07-29T14:51:05;25.50;99.90
19966;DHT22;10144;50.874;4.762;2023-07-29T14:53:31;25.60;99.90
19966;DHT22;10144;50.874;4.762;2023-07-29T14:55:57;25.60;99.90
19966;DHT22;10144;50.874;4.762;2023-07-29T14:58:22;25.70;99.90
19966;DHT22;10144;50.874;4.762;2023-07-29T15:00:51;25.70;99.90
19966;DHT22;10144;50.874;4.762;2023-07-29T15:03:17;25.40;99.90
19966;DHT22;10144;50.874;4.762;2023-07-29T15:05:42;25.50;99.90
19966;DHT22;10144;50.874;4.762;2023-07-29T15:08:08;25.60;99.90
19966;DHT22;10144;50.874;4.762;2023-07-29T15:10:34;25.70;99.90
19966;DHT22;10144;50.874;4.762;2023-07-29T15:12:59;26.00;99.90
19966;DHT22;10144;50.874;4.762;2023-07-29T15:15:25;25.90;99.90
19966;DHT22;10144;50.874;4.762;2023-07-29T15:17:50;25.70;99.90
19966;DHT22;10144;50.874;4.762;2023-07-29T15:20:16;25.60;99.90
19966;DHT22;10144;50.874;4.762;2023-07-29T15:22:41;25.50;99.90
19966;DHT22;10144;50.874;4.762;2023-07-29T15:25:09;25.70;99.90
19966;DHT22;10144;50.874;4.762;2023-07-29T15:27:35;25.60;99.90
19966;DHT22;10144;50.874;4.762;2023-07-29T15:30:00;25.70;99.90
19966;DHT22;10144;50.874;4.762;2023-07-29T15:32:26;25.70;99.90
19966;DHT22;10144;50.874;4.762;2023-07-29T15:34:53;25.80;99.90
19966;DHT22;10144;50.874;4.762;2023-07-29T15:37:19;25.70;99.90
19966;DHT22;10144;50.874;4.762;2023-07-29T15:39:44;25.60;99.90
19966;DHT22;10144;50.874;4.762;2023-07-29T15:42:10;25.50;99.90
19966;DHT22;10144;50.874;4.762;2023-07-29T15:44:35;25.30;99.90